createdAt,value
2023-02-11T00:00:12.399Z,15.70
2023-02-11T00:02:40.570Z,17.87
2023-02-11T00:05:09.069Z,17.07
2023-02-11T00:07:37.325Z,16.53
2023-02-11T00:10:07.850Z,15.90
2023-02-11T00:12:36.443Z,16.90
2023-02-11T00:15:04.771Z,17.33
2023-02-11T00:17:34.777Z,16.83
2023-02-11T00:20:02.917Z,15.30
2023-02-11T00:22:31.868Z,16.40
2023-02-11T00:24:59.949Z,15.90
2023-02-11T00:27:28.001Z,16.93
2023-02-11T00:29:56.305Z,16.23
2023-02-11T00:32:24.365Z,16.13
2023-02-11T00:34:55.456Z,16.57
2023-02-11T00:37:23.656Z,15.83
2023-02-11T00:39:51.789Z,15.67
2023-02-11T00:42:19.851Z,16.00
2023-02-11T00:44:47.956Z,16.90
2023-02-11T00:47:18.327Z,15.23
2023-02-11T00:49:46.456Z,15.17
2023-02-11T00:52:16.276Z,14.67
2023-02-11T00:54:44.468Z,15.93
2023-02-11T00:57:12.691Z,15.37
2023-02-11T00:59:41.161Z,15.33
2023-02-11T01:02:09.380Z,14.77
2023-02-11T01:04:37.523Z,15.97
2023-02-11T01:07:05.668Z,15.23
2023-02-11T01:09:35.222Z,15.40
2023-02-11T01:12:03.369Z,15.40
2023-02-11T01:14:31.478Z,15.73
2023-02-11T01:16:59.586Z,14.27
2023-02-11T01:19:27.893Z,13.30
2023-02-11T01:21:56.047Z,15.60
2023-02-11T01:24:24.309Z,14.17
2023-02-11T01:26:53.833Z,14.27
2023-02-11T01:29:22.376Z,15.67
2023-02-11T01:31:50.488Z,15.43
2023-02-11T01:34:19.019Z,15.17
2023-02-11T01:36:47.186Z,14.77
2023-02-11T01:39:15.327Z,15.13
2023-02-11T01:41:43.599Z,15.23
2023-02-11T01:44:30.119Z,14.80
2023-02-11T01:46:58.885Z,15.00
2023-02-11T01:49:30.660Z,14.90
2023-02-11T01:52:03.256Z,14.30
2023-02-11T01:54:56.767Z,13.37
2023-02-11T01:57:28.531Z,14.50
2023-02-11T02:00:13.961Z,13.60
2023-02-11T02:02:47.913Z,13.87
2023-02-11T02:05:24.277Z,15.10
2023-02-11T02:08:00.331Z,14.83
2023-02-11T02:10:29.970Z,14.27
2023-02-11T02:12:58.479Z,15.37
2023-02-11T02:15:30.311Z,14.17
2023-02-11T02:18:20.376Z,14.83
2023-02-11T02:21:24.359Z,15.53
2023-02-11T02:24:31.773Z,16.37
2023-02-11T02:27:28.777Z,15.73
2023-02-11T02:30:16.823Z,15.17
2023-02-11T02:32:56.922Z,15.30
2023-02-11T02:35:36.849Z,15.87
2023-02-11T02:38:09.761Z,14.73
2023-02-11T02:40:43.394Z,13.97
2023-02-11T02:43:12.835Z,15.00
2023-02-11T02:45:40.927Z,15.00
2023-02-11T02:48:26.089Z,15.00
2023-02-11T02:51:07.684Z,15.70
2023-02-11T02:53:46.123Z,15.87
2023-02-11T02:56:19.883Z,16.00
2023-02-11T02:59:11.201Z,15.57
2023-02-11T03:01:47.146Z,15.57
2023-02-11T03:04:24.350Z,15.03
2023-02-11T03:06:57.998Z,15.50
2023-02-11T03:09:32.158Z,17.10
2023-02-11T03:12:02.221Z,15.80
2023-02-11T03:14:31.833Z,15.87
2023-02-11T03:17:02.533Z,14.80
2023-02-11T03:19:37.669Z,15.80
2023-02-11T03:22:12.250Z,17.03
2023-02-11T03:24:42.669Z,16.43
2023-02-11T03:27:19.091Z,15.37
2023-02-11T03:29:54.867Z,15.37
2023-02-11T03:32:29.211Z,15.50
2023-02-11T03:35:02.677Z,16.27
2023-02-11T03:37:34.998Z,16.77
2023-02-11T03:40:06.402Z,16.23
2023-02-11T03:42:40.209Z,16.13
2023-02-11T03:45:11.945Z,15.63
2023-02-11T03:47:44.735Z,16.90
2023-02-11T03:50:17.318Z,16.33
2023-02-11T03:52:46.536Z,16.07
2023-02-11T03:55:18.378Z,15.17
2023-02-11T03:57:46.900Z,14.93
2023-02-11T04:00:16.043Z,16.13
2023-02-11T04:02:44.927Z,13.80
2023-02-11T04:05:17.059Z,14.97
2023-02-11T04:07:45.146Z,14.83
2023-02-11T04:10:14.018Z,13.90
2023-02-11T04:12:42.168Z,14.90
2023-02-11T04:15:11.162Z,13.57
2023-02-11T04:17:39.507Z,16.10
2023-02-11T04:20:08.007Z,15.13
2023-02-11T04:22:37.990Z,15.60
2023-02-11T04:25:07.752Z,16.60
2023-02-11T04:27:36.150Z,15.30
2023-02-11T04:30:05.605Z,15.57
2023-02-11T04:32:33.767Z,14.83
2023-02-11T04:35:02.883Z,15.63
2023-02-11T04:37:31.118Z,15.40
2023-02-11T04:40:00.571Z,14.93
2023-02-11T04:42:28.903Z,14.27
2023-02-11T04:44:57.008Z,14.63
2023-02-11T04:47:25.159Z,13.90
2023-02-11T04:49:53.219Z,13.30
2023-02-11T04:52:21.340Z,14.73
2023-02-11T04:54:49.439Z,14.77
2023-02-11T04:57:18.996Z,14.50
2023-02-11T04:59:47.074Z,14.27
2023-02-11T05:02:15.182Z,15.53
2023-02-11T05:04:43.260Z,14.03
2023-02-11T05:07:11.345Z,14.20
2023-02-11T05:09:39.466Z,14.97
2023-02-11T05:12:08.025Z,14.87
2023-02-11T05:14:37.505Z,15.67
2023-02-11T05:17:05.624Z,14.83
2023-02-11T05:19:33.873Z,15.07
2023-02-11T05:22:03.541Z,14.30
2023-02-11T05:24:32.821Z,14.90
2023-02-11T05:27:01.458Z,15.30
2023-02-11T05:29:29.639Z,14.60
2023-02-11T05:32:00.173Z,14.97
2023-02-11T05:34:28.456Z,14.90
2023-02-11T05:36:57.033Z,16.17
2023-02-11T05:39:25.157Z,14.77
2023-02-11T05:41:53.257Z,15.70
2023-02-11T05:44:21.416Z,17.23
2023-02-11T05:46:50.406Z,14.80
2023-02-11T05:49:20.134Z,16.83
2023-02-11T05:51:48.671Z,17.30
2023-02-11T05:54:17.020Z,17.23
2023-02-11T05:56:45.192Z,17.30
2023-02-11T05:59:15.390Z,16.17
2023-02-11T06:01:43.755Z,16.43
2023-02-11T06:04:11.911Z,15.90
2023-02-11T06:06:41.403Z,16.17
2023-02-11T06:09:11.554Z,14.57
2023-02-11T06:11:39.692Z,16.07
2023-02-11T06:14:08.010Z,14.87
2023-02-11T06:16:36.140Z,15.17
2023-02-11T06:19:04.268Z,15.60
2023-02-11T06:21:43.308Z,15.13
2023-02-11T06:24:13.735Z,16.07
2023-02-11T06:26:41.867Z,15.20
2023-02-11T06:29:10.155Z,17.57
2023-02-11T06:31:39.534Z,18.97
2023-02-11T06:34:08.374Z,17.73
2023-02-11T06:36:37.506Z,19.37
2023-02-11T06:39:05.705Z,17.87
2023-02-11T06:41:35.428Z,17.77
2023-02-11T06:44:03.524Z,17.77
2023-02-11T06:46:31.747Z,18.80
2023-02-11T06:48:59.867Z,18.37
2023-02-11T06:51:28.476Z,19.43
2023-02-11T06:53:56.651Z,19.13
2023-02-11T06:56:27.473Z,20.07
2023-02-11T06:58:58.081Z,20.17
2023-02-11T07:01:27.457Z,20.80
2023-02-11T07:03:56.258Z,19.93
2023-02-11T07:06:28.415Z,18.63
2023-02-11T07:08:57.353Z,19.17
2023-02-11T07:11:27.526Z,18.70
2023-02-11T07:13:58.671Z,20.13
2023-02-11T07:16:26.831Z,19.67
2023-02-11T07:18:55.014Z,19.57
2023-02-11T07:21:24.362Z,18.17
2023-02-11T07:23:52.890Z,18.10
2023-02-11T07:26:23.303Z,18.20
2023-02-11T07:28:52.460Z,17.90
2023-02-11T07:31:24.544Z,18.13
2023-02-11T07:33:54.207Z,19.37
2023-02-11T07:36:23.020Z,20.33
2023-02-11T07:38:51.533Z,21.07
2023-02-11T07:41:21.725Z,18.67
2023-02-11T07:43:49.945Z,18.83
2023-02-11T07:46:21.130Z,18.63
2023-02-11T07:48:51.091Z,19.07
2023-02-11T07:51:21.442Z,18.43
2023-02-11T07:53:50.071Z,16.67
2023-02-11T07:56:19.609Z,17.73
2023-02-11T07:58:48.087Z,17.60
2023-02-11T08:01:22.679Z,17.13
2023-02-11T08:03:53.019Z,16.83
2023-02-11T08:06:23.359Z,17.33
2023-02-11T08:08:52.061Z,17.40
2023-02-11T08:11:22.601Z,19.13
2023-02-11T08:13:51.020Z,20.03
2023-02-11T08:16:21.527Z,19.23
2023-02-11T08:18:50.679Z,19.97
2023-02-11T08:21:21.364Z,19.13
2023-02-11T08:23:49.822Z,20.07
2023-02-11T08:26:20.147Z,19.33
2023-02-11T08:28:49.491Z,19.27
2023-02-11T08:31:19.194Z,18.57
2023-02-11T08:33:47.696Z,18.17
2023-02-11T08:36:18.008Z,17.17
2023-02-11T08:38:48.096Z,18.47
2023-02-11T08:41:16.758Z,16.93
2023-02-11T08:43:46.253Z,18.17
2023-02-11T08:46:16.371Z,17.53
2023-02-11T08:48:44.765Z,17.60
2023-02-11T08:51:16.102Z,17.33
2023-02-11T08:53:44.259Z,16.33
2023-02-11T08:56:14.638Z,17.10
2023-02-11T08:58:43.620Z,16.87
2023-02-11T09:01:12.383Z,15.00
2023-02-11T09:03:40.759Z,16.53
2023-02-11T09:06:10.840Z,15.53
2023-02-11T09:08:40.323Z,16.07
2023-02-11T09:11:09.046Z,15.93
2023-02-11T09:13:39.189Z,15.53
2023-02-11T09:16:08.184Z,14.43
2023-02-11T09:18:36.375Z,15.27
2023-02-11T09:21:04.974Z,14.87
2023-02-11T09:23:34.549Z,14.20
2023-02-11T09:26:09.206Z,13.53
2023-02-11T09:28:39.143Z,13.97
2023-02-11T09:31:07.855Z,13.77
2023-02-11T09:33:36.666Z,12.03
2023-02-11T09:36:05.904Z,12.67
2023-02-11T09:38:34.650Z,12.40
2023-02-11T09:41:07.681Z,11.63
2023-02-11T09:43:45.370Z,12.77
2023-02-11T09:46:16.579Z,12.70
2023-02-11T09:48:47.802Z,12.23
2023-02-11T09:51:25.833Z,14.07
2023-02-11T09:54:04.444Z,13.60
2023-02-11T09:56:33.610Z,11.77
2023-02-11T09:59:03.237Z,12.17
2023-02-11T10:01:39.925Z,13.33
2023-02-11T10:04:20.889Z,13.93
2023-02-11T10:06:52.262Z,12.53
2023-02-11T10:09:43.474Z,12.80
2023-02-11T10:12:25.356Z,11.80
2023-02-11T10:15:13.612Z,11.53
2023-02-11T10:17:51.174Z,11.20
2023-02-11T10:20:27.205Z,11.67
2023-02-11T10:22:58.989Z,11.23
2023-02-11T10:25:29.869Z,12.27
2023-02-11T10:28:00.852Z,10.93
2023-02-11T10:30:34.583Z,11.77
2023-02-11T10:33:12.030Z,10.90
2023-02-11T10:35:40.360Z,11.47
2023-02-11T10:38:10.064Z,10.93
2023-02-11T10:40:38.232Z,10.33
2023-02-11T10:43:11.782Z,10.47
2023-02-11T10:45:44.494Z,11.17
2023-02-11T10:48:38.930Z,10.80
2023-02-11T10:51:18.430Z,10.40
2023-02-11T10:53:47.606Z,10.65
2023-02-11T10:56:24.250Z,10.02
2023-02-11T10:58:58.911Z,10.95
2023-02-11T11:01:41.850Z,10.63
2023-02-11T11:04:38.473Z,10.60
2023-02-11T11:07:20.955Z,9.80
2023-02-11T11:09:53.039Z,9.85
2023-02-11T11:12:30.402Z,9.63
2023-02-11T11:15:00.583Z,10.05
2023-02-11T11:17:30.728Z,9.18
2023-02-11T11:20:24.721Z,9.38
2023-02-11T11:22:56.050Z,8.52
2023-02-11T11:25:28.181Z,8.48
2023-02-11T11:28:00.494Z,8.18
2023-02-11T11:30:35.806Z,8.48
2023-02-11T11:33:05.793Z,8.60
2023-02-11T11:35:34.395Z,8.93
2023-02-11T11:38:05.973Z,7.97
2023-02-11T11:40:35.696Z,7.35
2023-02-11T11:43:20.243Z,7.67
2023-02-11T11:45:57.669Z,7.27
2023-02-11T11:48:32.603Z,6.17
2023-02-11T11:51:03.329Z,6.63
2023-02-11T11:53:40.425Z,6.83
2023-02-11T11:56:15.405Z,7.10
2023-02-11T11:58:43.829Z,6.83
2023-02-11T12:01:22.301Z,7.18
2023-02-11T12:04:29.084Z,6.78
2023-02-11T12:07:07.842Z,6.47
2023-02-11T12:09:45.421Z,7.72
2023-02-11T12:12:32.377Z,7.18
2023-02-11T12:15:13.080Z,7.28
2023-02-11T12:17:58.985Z,7.47
2023-02-11T12:20:36.756Z,7.70
2023-02-11T12:23:28.405Z,8.75
2023-02-11T12:26:03.981Z,7.20
2023-02-11T12:28:41.912Z,7.20
2023-02-11T12:31:20.691Z,7.97
2023-02-11T12:34:14.489Z,7.82
2023-02-11T12:37:03.449Z,8.32
2023-02-11T12:39:38.659Z,7.70
2023-02-11T12:42:42.913Z,7.82
2023-02-11T12:45:23.102Z,7.13
2023-02-11T12:48:07.172Z,7.93
2023-02-11T12:50:44.379Z,6.93
2023-02-11T12:53:32.369Z,7.45
2023-02-11T12:56:07.116Z,6.53
2023-02-11T12:58:44.910Z,7.43
2023-02-11T13:01:21.142Z,6.30
2023-02-11T13:03:55.831Z,6.53
2023-02-11T13:06:30.222Z,6.03
2023-02-11T13:09:03.653Z,6.27
2023-02-11T13:11:39.212Z,6.77
2023-02-11T13:14:12.980Z,6.83
2023-02-11T13:16:44.189Z,6.67
2023-02-11T13:19:23.057Z,6.53
2023-02-11T13:22:08.151Z,6.33
2023-02-11T13:24:45.923Z,5.77
2023-02-11T13:27:32.155Z,5.93
2023-02-11T13:30:31.266Z,6.57
2023-02-11T13:33:21.845Z,5.33
2023-02-11T13:36:20.686Z,5.60
2023-02-11T13:38:59.969Z,5.63
2023-02-11T13:41:33.849Z,5.77
2023-02-11T13:44:22.685Z,5.60
2023-02-11T13:46:56.050Z,5.57
2023-02-11T13:49:28.833Z,5.77
2023-02-11T13:51:58.251Z,4.90
2023-02-11T13:54:34.436Z,5.80
2023-02-11T13:57:27.642Z,5.80
2023-02-11T13:59:57.373Z,5.20
2023-02-11T14:02:47.772Z,5.40
2023-02-11T14:05:45.269Z,5.33
2023-02-11T14:08:39.232Z,4.63
2023-02-11T14:11:13.164Z,5.33
2023-02-11T14:14:16.650Z,5.10
2023-02-11T14:17:25.013Z,5.03
2023-02-11T14:19:53.926Z,4.20
2023-02-11T14:22:27.531Z,4.70
2023-02-11T14:24:59.449Z,4.63
2023-02-11T14:27:33.312Z,4.17
2023-02-11T14:30:28.067Z,4.53
2023-02-11T14:33:21.511Z,4.30
2023-02-11T14:36:03.078Z,3.90
2023-02-11T14:38:45.394Z,4.70
2023-02-11T14:41:22.415Z,4.00
2023-02-11T14:43:54.055Z,3.43
2023-02-11T14:46:27.871Z,6.37
2023-02-11T14:49:00.278Z,4.80
2023-02-11T14:51:31.802Z,5.07
2023-02-11T14:54:06.365Z,4.10
2023-02-11T14:56:36.659Z,3.70
2023-02-11T14:59:06.080Z,3.67
2023-02-11T15:01:42.423Z,4.07
2023-02-11T15:04:26.333Z,3.77
2023-02-11T15:06:55.781Z,4.53
2023-02-11T15:09:29.858Z,3.90
2023-02-11T15:11:59.536Z,4.60
2023-02-11T15:14:30.939Z,4.40
2023-02-11T15:17:04.277Z,4.73
2023-02-11T15:19:36.503Z,4.37
2023-02-11T15:22:07.020Z,4.90
2023-02-11T15:24:39.823Z,4.23
2023-02-11T15:27:16.407Z,4.87
2023-02-11T15:29:49.460Z,4.50
2023-02-11T15:32:22.334Z,4.27
2023-02-11T15:34:53.962Z,5.83
2023-02-11T15:37:27.728Z,6.30
2023-02-11T15:40:09.865Z,6.30
2023-02-11T15:42:52.088Z,6.87
2023-02-11T15:45:29.595Z,6.17
2023-02-11T15:48:08.037Z,5.13
2023-02-11T15:50:41.288Z,6.10
2023-02-11T15:53:24.482Z,5.97
2023-02-11T15:55:59.110Z,5.97
2023-02-11T15:58:29.983Z,6.90
2023-02-11T16:01:01.614Z,6.50
2023-02-11T16:03:34.203Z,6.17
2023-02-11T16:06:23.538Z,5.93
2023-02-11T16:09:02.739Z,6.37
2023-02-11T16:11:34.630Z,6.40
2023-02-11T16:14:24.146Z,5.93
2023-02-11T16:16:55.714Z,6.67
2023-02-11T16:19:28.144Z,9.63
2023-02-11T16:22:00.218Z,6.43
2023-02-11T16:24:32.105Z,6.97
2023-02-11T16:27:04.432Z,7.10
2023-02-11T16:29:37.212Z,7.67
2023-02-11T16:32:14.555Z,7.83
2023-02-11T16:34:46.751Z,8.80
2023-02-11T16:37:17.428Z,8.50
2023-02-11T16:39:47.870Z,9.27
2023-02-11T16:42:17.495Z,8.50
2023-02-11T16:44:47.396Z,9.40
2023-02-11T16:47:22.296Z,10.13
2023-02-11T16:49:56.247Z,12.40
2023-02-11T16:52:26.718Z,10.70
2023-02-11T16:54:57.899Z,10.13
2023-02-11T16:57:30.178Z,10.03
2023-02-11T17:00:01.092Z,10.37
2023-02-11T17:02:33.331Z,9.53
2023-02-11T17:05:06.874Z,9.57
2023-02-11T17:07:36.306Z,9.43
2023-02-11T17:10:06.356Z,8.53
2023-02-11T17:12:35.999Z,8.27
2023-02-11T17:15:07.547Z,8.57
2023-02-11T17:17:37.046Z,8.20
2023-02-11T17:20:14.610Z,9.83
2023-02-11T17:22:44.138Z,10.03
2023-02-11T17:25:13.669Z,9.80
2023-02-11T17:27:43.606Z,10.30
2023-02-11T17:30:18.850Z,9.60
2023-02-11T17:32:49.279Z,10.40
2023-02-11T17:35:19.524Z,14.10
2023-02-11T17:37:49.190Z,11.80
2023-02-11T17:40:18.939Z,9.77
2023-02-11T17:42:48.810Z,9.07
2023-02-11T17:45:22.368Z,8.47
2023-02-11T17:47:53.001Z,8.13
2023-02-11T17:50:26.131Z,6.37
2023-02-11T17:52:57.598Z,6.07
2023-02-11T17:55:27.370Z,6.77
2023-02-11T17:57:57.325Z,6.30
2023-02-11T18:00:31.336Z,6.37
2023-02-11T18:03:03.021Z,8.00
2023-02-11T18:05:40.749Z,7.23
2023-02-11T18:08:11.471Z,8.13
2023-02-11T18:10:43.462Z,7.73
2023-02-11T18:13:13.922Z,8.33
2023-02-11T18:15:43.311Z,8.53
2023-02-11T18:18:13.492Z,10.90
2023-02-11T18:20:44.696Z,10.67
2023-02-11T18:23:14.707Z,9.80
2023-02-11T18:25:44.738Z,8.77
2023-02-11T18:28:14.325Z,8.50
2023-02-11T18:30:44.650Z,10.17
2023-02-11T18:33:15.030Z,9.90
2023-02-11T18:35:47.751Z,10.20
2023-02-11T18:38:18.774Z,9.87
2023-02-11T18:40:51.155Z,11.03
2023-02-11T18:43:24.141Z,11.10
2023-02-11T18:45:54.196Z,10.13
2023-02-11T18:48:25.724Z,10.03
2023-02-11T18:51:00.592Z,10.40
2023-02-11T18:53:30.839Z,12.90
2023-02-11T18:56:01.923Z,11.27
2023-02-11T18:58:32.021Z,11.80
2023-02-11T19:01:02.374Z,11.43
2023-02-11T19:03:32.781Z,11.17
2023-02-11T19:06:06.059Z,12.13
2023-02-11T19:08:36.886Z,11.50
2023-02-11T19:11:07.546Z,10.53
2023-02-11T19:13:40.455Z,10.90
2023-02-11T19:16:14.668Z,11.07
2023-02-11T19:18:44.679Z,11.20
2023-02-11T19:21:17.115Z,11.63
2023-02-11T19:23:46.960Z,10.00
2023-02-11T19:26:18.271Z,12.47
2023-02-11T19:28:49.226Z,10.93
2023-02-11T19:31:18.489Z,11.37
2023-02-11T19:33:47.923Z,12.27
2023-02-11T19:36:22.793Z,11.73
2023-02-11T19:38:52.014Z,13.10
2023-02-11T19:41:23.953Z,15.13
2023-02-11T19:43:54.189Z,13.23
2023-02-11T19:46:25.835Z,15.37
2023-02-11T19:48:58.045Z,14.73
2023-02-11T19:51:30.420Z,15.70
2023-02-11T19:54:01.804Z,14.83
2023-02-11T19:56:32.011Z,14.60
2023-02-11T19:59:03.767Z,15.03
2023-02-11T20:01:33.216Z,14.33
2023-02-11T20:04:03.964Z,15.80
2023-02-11T20:06:35.679Z,16.10
2023-02-11T20:09:08.264Z,15.73
2023-02-11T20:11:39.460Z,13.97
2023-02-11T20:14:11.098Z,13.97
2023-02-11T20:16:48.675Z,14.80
2023-02-11T20:19:22.753Z,14.40
2023-02-11T20:21:56.720Z,15.57
2023-02-11T20:24:27.391Z,15.53
2023-02-11T20:26:59.458Z,15.13
2023-02-11T20:29:31.748Z,13.70
2023-02-11T20:32:03.557Z,13.87
2023-02-11T20:34:33.887Z,13.33
2023-02-11T20:37:05.442Z,14.17
2023-02-11T20:39:36.260Z,17.87
2023-02-11T20:42:10.185Z,17.50
2023-02-11T20:44:40.018Z,15.83
2023-02-11T20:47:09.054Z,15.37
2023-02-11T20:49:39.736Z,15.17
2023-02-11T20:52:12.702Z,15.50
2023-02-11T20:54:43.863Z,14.53
2023-02-11T20:57:15.634Z,14.33
2023-02-11T20:59:46.873Z,14.00
2023-02-11T21:02:15.915Z,15.57
2023-02-11T21:04:46.917Z,15.63
2023-02-11T21:07:20.915Z,15.97
2023-02-11T21:09:50.511Z,17.50
2023-02-11T21:12:23.369Z,16.60
2023-02-11T21:14:54.719Z,16.13
2023-02-11T21:17:26.836Z,16.47
2023-02-11T21:19:56.502Z,16.43
2023-02-11T21:22:27.524Z,16.60
2023-02-11T21:24:57.103Z,15.47
2023-02-11T21:27:31.670Z,15.20
2023-02-11T21:30:02.244Z,13.73
2023-02-11T21:32:33.042Z,13.33
2023-02-11T21:35:02.531Z,13.87
2023-02-11T21:37:34.065Z,13.03
2023-02-11T21:40:03.528Z,16.80
2023-02-11T21:42:33.140Z,16.17
2023-02-11T21:45:02.176Z,16.43
2023-02-11T21:47:31.607Z,14.17
2023-02-11T21:50:00.800Z,14.37
2023-02-11T21:52:32.173Z,14.27
2023-02-11T21:55:02.389Z,13.63
2023-02-11T21:57:31.920Z,14.10
2023-02-11T22:00:00.638Z,13.00
2023-02-11T22:02:29.002Z,13.03
2023-02-11T22:04:58.065Z,12.13
2023-02-11T22:07:28.187Z,13.50
2023-02-11T22:09:57.264Z,13.30
2023-02-11T22:12:27.492Z,12.40
2023-02-11T22:14:56.366Z,12.90
2023-02-11T22:17:25.118Z,13.83
2023-02-11T22:19:53.281Z,13.40
2023-02-11T22:22:21.615Z,15.03
2023-02-11T22:24:50.013Z,15.03
2023-02-11T22:27:20.243Z,22.63
2023-02-11T22:29:49.870Z,17.63
2023-02-11T22:32:18.601Z,15.67
2023-02-11T22:34:47.017Z,13.70
2023-02-11T22:37:15.388Z,13.80
2023-02-11T22:39:43.835Z,13.43
2023-02-11T22:42:12.111Z,13.43
2023-02-11T22:44:40.136Z,14.57
2023-02-11T22:47:09.712Z,14.40
2023-02-11T22:49:39.581Z,12.43
2023-02-11T22:52:07.714Z,12.97
2023-02-11T22:54:36.221Z,12.40
2023-02-11T22:57:04.477Z,12.90
2023-02-11T22:59:32.598Z,12.07
2023-02-11T23:02:00.754Z,12.03
2023-02-11T23:04:30.863Z,12.53
2023-02-11T23:06:58.982Z,12.23
2023-02-11T23:09:27.132Z,13.13
2023-02-11T23:11:55.670Z,13.20
2023-02-11T23:14:24.406Z,13.87
2023-02-11T23:16:52.622Z,12.60
2023-02-11T23:19:20.930Z,12.33
2023-02-11T23:21:52.650Z,12.33
2023-02-11T23:24:20.863Z,12.53
2023-02-11T23:26:48.922Z,11.87
2023-02-11T23:29:17.098Z,12.53
2023-02-11T23:31:46.583Z,14.20
2023-02-11T23:34:17.274Z,13.83
2023-02-11T23:36:45.430Z,12.33
2023-02-11T23:39:17.983Z,12.00
2023-02-11T23:41:46.825Z,13.30
2023-02-11T23:44:15.060Z,12.33
2023-02-11T23:46:43.219Z,12.83
2023-02-11T23:49:11.347Z,12.50
2023-02-11T23:51:39.468Z,13.50
2023-02-11T23:54:07.551Z,12.40
2023-02-11T23:56:38.089Z,13.23
2023-02-11T23:59:07.007Z,12.43
